Terminal Aerodrome Forecast
Issued by NWS Sterling, VA

Current Version | Previous Version | Graphics & Text | Print | Product List | Glossary On
Versions: 1 2 3 4 5 6 7 8 9 10 11 12 13 14 15 16 17 18 19 20 21 22 23 24 25 26 27 28 29 30 31
000
FTUS41 KLWX 300537
TAFIAD
TAF
KIAD 300537Z 3006/0112 17005KT P6SM SCT100
     FM300800 17005KT P6SM BKN080
     FM301500 18009G18KT P6SM BKN050
     FM302200 19005KT P6SM VCTS BKN050CB
     FM010200 26004KT P6SM BKN050=

USA.gov is the U.S. government's official web portal to all federal, state and local government web resources and services.